createdAt,value
2018-07-03T00:01:08.058Z,100942.00
2018-07-03T00:03:38.373Z,100939.00
2018-07-03T00:06:08.436Z,100936.00
2018-07-03T00:08:38.279Z,100936.00
2018-07-03T00:20:34.449Z,100937.00
2018-07-03T00:23:04.609Z,100942.00
2018-07-03T00:25:34.879Z,100940.00
2018-07-03T00:28:05.102Z,100940.00
2018-07-03T00:30:35.346Z,100944.00
2018-07-03T00:33:05.412Z,100946.00
2018-07-03T00:35:35.735Z,100942.00
2018-07-03T00:38:05.760Z,100944.00
2018-07-03T00:40:36.121Z,100941.00
2018-07-03T00:43:06.352Z,100940.00
2018-07-03T00:45:36.311Z,100942.00
2018-07-03T00:48:06.575Z,100943.00
2018-07-03T00:50:36.838Z,100941.00
2018-07-03T00:53:06.814Z,100939.00
2018-07-03T00:55:37.226Z,100941.00
2018-07-03T00:58:07.461Z,100936.00
2018-07-03T01:00:37.560Z,100935.00
2018-07-03T01:03:07.330Z,100937.00
2018-07-03T01:05:37.544Z,100937.00
2018-07-03T01:08:07.536Z,100932.00
2018-07-03T01:10:37.409Z,100933.00
2018-07-03T01:13:07.556Z,100937.00
2018-07-03T01:15:37.718Z,100934.00
2018-07-03T01:18:08.196Z,100930.00
2018-07-03T01:20:37.736Z,100928.00
2018-07-03T01:23:08.353Z,100925.00
2018-07-03T01:25:38.590Z,100924.00
2018-07-03T01:28:08.521Z,100927.00
2018-07-03T01:30:38.908Z,100934.00
2018-07-03T01:33:08.964Z,100930.00
2018-07-03T01:35:38.921Z,100930.00
2018-07-03T01:38:09.590Z,100931.00
2018-07-03T01:40:39.658Z,100932.00
2018-07-03T01:43:09.931Z,100932.00
2018-07-03T01:45:40.206Z,100935.00
2018-07-03T01:48:10.299Z,100888.00
2018-07-03T01:50:39.765Z,100928.00
2018-07-03T01:53:09.933Z,100932.00
2018-07-03T01:55:39.984Z,100924.00
2018-07-03T01:58:10.136Z,100925.00
2018-07-03T02:00:40.440Z,100919.00
2018-07-03T02:03:10.495Z,100922.00
2018-07-03T02:05:40.352Z,100923.00
2018-07-03T02:08:10.390Z,100924.00
2018-07-03T02:10:40.503Z,100924.00
2018-07-03T02:13:10.438Z,100917.00
2018-07-03T02:15:40.482Z,100920.00
2018-07-03T02:18:10.716Z,100922.00
2018-07-03T02:20:40.936Z,100924.00
2018-07-03T02:23:11.228Z,100918.00
2018-07-03T02:25:41.399Z,100917.00
2018-07-03T02:28:11.496Z,100915.00
2018-07-03T02:30:41.779Z,100907.00
2018-07-03T02:33:11.813Z,100907.00
2018-07-03T02:35:42.185Z,100904.00
2018-07-03T02:38:12.215Z,100907.00
2018-07-03T02:40:42.365Z,100907.00
2018-07-03T02:43:13.000Z,100900.00
2018-07-03T02:45:43.372Z,100902.00
2018-07-03T02:48:14.425Z,100909.00
2018-07-03T02:50:45.393Z,100907.00
2018-07-03T02:53:15.557Z,100909.00
2018-07-03T02:55:45.665Z,100905.00
2018-07-03T02:58:15.754Z,100910.00
2018-07-03T03:00:46.035Z,100910.00
2018-07-03T03:03:16.349Z,100910.00
2018-07-03T03:05:46.465Z,100910.00
2018-07-03T03:08:16.733Z,100916.00
2018-07-03T03:10:46.904Z,100915.00
2018-07-03T03:13:17.114Z,100910.00
2018-07-03T03:15:47.071Z,100910.00
2018-07-03T03:18:17.494Z,100909.00
2018-07-03T03:20:47.536Z,100909.00
2018-07-03T03:23:17.344Z,100911.00
2018-07-03T03:25:47.841Z,100912.00
2018-07-03T03:28:17.884Z,100915.00
2018-07-03T03:30:47.351Z,100913.00
2018-07-03T03:33:17.379Z,100911.00
2018-07-03T03:35:47.255Z,100909.00
2018-07-03T03:38:17.090Z,100906.00
2018-07-03T03:40:47.184Z,100910.00
2018-07-03T03:43:17.430Z,100912.00
2018-07-03T03:45:47.589Z,100919.00
2018-07-03T03:48:17.809Z,100916.00
2018-07-03T03:50:48.070Z,100917.00
2018-07-03T03:53:18.385Z,100922.00
2018-07-03T03:55:48.500Z,100917.00
2018-07-03T03:58:18.616Z,100917.00
2018-07-03T04:00:48.889Z,100914.00
2018-07-03T04:03:19.090Z,100915.00
2018-07-03T04:05:49.086Z,100919.00
2018-07-03T04:08:19.760Z,100915.00
2018-07-03T04:10:50.428Z,100917.00
2018-07-03T04:13:20.460Z,100916.00
2018-07-03T04:15:50.885Z,100917.00
2018-07-03T04:18:30.472Z,100921.00
2018-07-03T04:21:01.039Z,100920.00
2018-07-03T04:23:31.490Z,100922.00
2018-07-03T04:26:01.582Z,100929.00
2018-07-03T04:28:32.544Z,100929.00
2018-07-03T04:31:03.200Z,100931.00
2018-07-03T04:33:33.261Z,100932.00
2018-07-03T04:36:03.259Z,100930.00
2018-07-03T04:38:33.328Z,100931.00
2018-07-03T04:41:03.995Z,100936.00
2018-07-03T04:43:34.942Z,100937.00
2018-07-03T04:46:05.972Z,100938.00
2018-07-03T04:48:36.708Z,100939.00
2018-07-03T04:51:07.308Z,100941.00
2018-07-03T04:53:37.419Z,100945.00
2018-07-03T04:56:07.631Z,100948.00
2018-07-03T04:58:37.616Z,100949.00
2018-07-03T05:01:08.246Z,100951.00
2018-07-03T05:03:38.456Z,100948.00
2018-07-03T05:06:08.650Z,100954.00
2018-07-03T05:08:38.741Z,100954.00
2018-07-03T05:11:08.883Z,100957.00
2018-07-03T05:13:39.056Z,100954.00
2018-07-03T05:16:09.266Z,100956.00
2018-07-03T05:18:39.476Z,100957.00
2018-07-03T05:21:09.433Z,100954.00
2018-07-03T05:23:39.521Z,100947.00
2018-07-03T05:26:10.130Z,100953.00
2018-07-03T05:28:40.367Z,100955.00
2018-07-03T05:31:10.596Z,100950.00
2018-07-03T05:33:40.700Z,100953.00
2018-07-03T05:36:10.817Z,100952.00
2018-07-03T05:38:41.041Z,100956.00
2018-07-03T05:41:11.324Z,100963.00
2018-07-03T05:43:41.403Z,100960.00
2018-07-03T05:46:11.738Z,100958.00
2018-07-03T05:48:41.760Z,100960.00
2018-07-03T05:51:11.722Z,100956.00
2018-07-03T05:53:41.836Z,100960.00
2018-07-03T05:56:12.006Z,100967.00
2018-07-03T05:58:42.218Z,100964.00
2018-07-03T06:01:12.476Z,100963.00
2018-07-03T06:03:42.588Z,100961.00
2018-07-03T06:06:12.725Z,100963.00
2018-07-03T06:08:42.738Z,100963.00
2018-07-03T06:11:12.879Z,100956.00
2018-07-03T06:13:43.646Z,100958.00
2018-07-03T06:16:14.028Z,100961.00
2018-07-03T06:18:44.141Z,100956.00
2018-07-03T06:21:14.253Z,100959.00
2018-07-03T06:23:44.462Z,100959.00
2018-07-03T06:26:14.835Z,100958.00
2018-07-03T06:28:44.883Z,100954.00
2018-07-03T06:31:15.297Z,100948.00
2018-07-03T06:33:45.392Z,100952.00
2018-07-03T06:36:15.563Z,100950.00
2018-07-03T06:38:45.803Z,100953.00
2018-07-03T06:41:16.021Z,100954.00
2018-07-03T06:43:46.196Z,100956.00
2018-07-03T06:46:16.411Z,100950.00
2018-07-03T06:48:47.426Z,100953.00
2018-07-03T06:51:17.741Z,100953.00
2018-07-03T06:53:48.052Z,100952.00
2018-07-03T06:56:18.208Z,100949.00
2018-07-03T06:58:48.244Z,100955.00
2018-07-03T07:01:18.576Z,100948.00
2018-07-03T07:03:48.767Z,100948.00
2018-07-03T07:06:18.761Z,100943.00
2018-07-03T07:08:49.063Z,100940.00
2018-07-03T07:11:19.317Z,100935.00
2018-07-03T07:13:49.690Z,100935.00
2018-07-03T07:16:19.697Z,100931.00
2018-07-03T07:18:49.978Z,100927.00
2018-07-03T07:21:19.969Z,100932.00
2018-07-03T07:23:50.341Z,100924.00
2018-07-03T07:26:20.391Z,100924.00
2018-07-03T07:28:50.661Z,100929.00
2018-07-03T07:31:20.641Z,100926.00
2018-07-03T07:33:51.106Z,100926.00
2018-07-03T07:36:21.288Z,100925.00
2018-07-03T07:38:51.548Z,100922.00
2018-07-03T07:41:21.622Z,100919.00
2018-07-03T07:43:51.813Z,100924.00
2018-07-03T07:46:22.085Z,100928.00
2018-07-03T07:48:52.182Z,100929.00
2018-07-03T07:51:22.370Z,100926.00
2018-07-03T07:53:52.142Z,100923.00
2018-07-03T07:56:22.409Z,100921.00
2018-07-03T07:58:52.371Z,100928.00
2018-07-03T08:01:22.322Z,100922.00
2018-07-03T08:03:52.416Z,100920.00
2018-07-03T08:06:22.655Z,100910.00
2018-07-03T08:08:52.691Z,100905.00
2018-07-03T08:11:23.520Z,100908.00
2018-07-03T08:13:54.043Z,100905.00
2018-07-03T08:16:25.008Z,100907.00
2018-07-03T08:18:55.557Z,100903.00
2018-07-03T08:21:25.741Z,100901.00
2018-07-03T08:23:55.922Z,100905.00
2018-07-03T08:26:26.220Z,100910.00
2018-07-03T08:28:56.328Z,100911.00
2018-07-03T08:31:26.481Z,100907.00
2018-07-03T08:33:56.527Z,100909.00
2018-07-03T08:36:26.868Z,100911.00
2018-07-03T08:38:56.967Z,100908.00
2018-07-03T08:41:27.036Z,100907.00
2018-07-03T08:43:57.213Z,100910.00
2018-07-03T08:46:27.701Z,100903.00
2018-07-03T08:48:57.779Z,100904.00
2018-07-03T08:51:27.957Z,100906.00
2018-07-03T08:53:58.236Z,100904.00
2018-07-03T08:56:28.443Z,100906.00
2018-07-03T08:58:58.601Z,100901.00
2018-07-03T09:01:28.903Z,100899.00
2018-07-03T09:03:59.112Z,100899.00
2018-07-03T09:06:29.321Z,100902.00
2018-07-03T09:08:59.463Z,100903.00
2018-07-03T09:11:29.537Z,100904.00
2018-07-03T09:13:59.910Z,100905.00
2018-07-03T09:16:30.017Z,100903.00
2018-07-03T09:19:00.049Z,100903.00
2018-07-03T09:21:30.380Z,100895.00
2018-07-03T09:24:00.802Z,100887.00
2018-07-03T09:26:30.786Z,100885.00
2018-07-03T09:29:00.867Z,100887.00
2018-07-03T09:31:31.150Z,100887.00
2018-07-03T09:34:01.732Z,100888.00
2018-07-03T09:36:32.014Z,100882.00
2018-07-03T09:39:02.226Z,100882.00
2018-07-03T09:41:32.278Z,100880.00
2018-07-03T09:44:02.333Z,100872.00
2018-07-03T09:46:32.307Z,100871.00
2018-07-03T09:49:02.664Z,100839.00
2018-07-03T09:51:32.848Z,100867.00
2018-07-03T09:54:03.307Z,100869.00
2018-07-03T09:56:33.898Z,100866.00
2018-07-03T09:59:04.365Z,100867.00
2018-07-03T10:01:34.385Z,100863.00
2018-07-03T10:04:04.300Z,100869.00
2018-07-03T10:06:34.520Z,100867.00
2018-07-03T10:09:06.612Z,100870.00
2018-07-03T10:11:36.772Z,100872.00
2018-07-03T10:14:07.748Z,100870.00
2018-07-03T10:16:37.886Z,100873.00
2018-07-03T10:19:08.672Z,100871.00
2018-07-03T10:21:38.909Z,100874.00
2018-07-03T10:24:09.228Z,100869.00
2018-07-03T10:26:39.302Z,100866.00
2018-07-03T10:29:09.387Z,100868.00
2018-07-03T10:31:39.257Z,100868.00
2018-07-03T10:34:09.304Z,100867.00
2018-07-03T10:36:39.187Z,100869.00
2018-07-03T10:39:12.137Z,100865.00
2018-07-03T10:41:42.298Z,100863.00
2018-07-03T10:44:12.843Z,100861.00
2018-07-03T10:46:42.889Z,100857.00
2018-07-03T10:49:12.996Z,100859.00
2018-07-03T10:51:43.202Z,100858.00
2018-07-03T10:54:13.713Z,100853.00
2018-07-03T10:56:43.828Z,100853.00
2018-07-03T10:59:14.055Z,100850.00
2018-07-03T11:01:44.068Z,100845.00
2018-07-03T11:04:14.286Z,100842.00
2018-07-03T11:06:44.373Z,100838.00
2018-07-03T11:09:14.539Z,100835.00
2018-07-03T11:11:44.707Z,100827.00
2018-07-03T11:14:14.541Z,100827.00
2018-07-03T11:16:44.802Z,100830.00
2018-07-03T11:19:14.784Z,100828.00
2018-07-03T11:21:44.869Z,100831.00
2018-07-03T11:24:15.815Z,100829.00
2018-07-03T11:26:46.132Z,100827.00
2018-07-03T11:29:16.313Z,100825.00
2018-07-03T11:31:46.533Z,100822.00
2018-07-03T11:34:17.079Z,100820.00
2018-07-03T11:36:47.349Z,100821.00
2018-07-03T11:39:17.270Z,100818.00
2018-07-03T11:41:47.511Z,100817.00
2018-07-03T11:44:17.544Z,100816.00
2018-07-03T11:46:47.737Z,100815.00
2018-07-03T11:49:17.863Z,100811.00
2018-07-03T11:51:48.194Z,100808.00
2018-07-03T11:54:18.070Z,100809.00
2018-07-03T11:56:48.428Z,100808.00
2018-07-03T11:59:18.560Z,100801.00
2018-07-03T12:01:49.309Z,100796.00
2018-07-03T12:04:20.876Z,100800.00
2018-07-03T12:06:51.751Z,100800.00
2018-07-03T12:10:34.114Z,100803.00
2018-07-03T12:13:04.622Z,100794.00
2018-07-03T12:15:34.863Z,100793.00
2018-07-03T12:18:05.087Z,100795.00
2018-07-03T12:20:35.374Z,100792.00
2018-07-03T12:23:05.982Z,100783.00
2018-07-03T12:25:37.109Z,100786.00
2018-07-03T12:28:07.944Z,100786.00
2018-07-03T12:30:38.037Z,100785.00
2018-07-03T12:33:08.219Z,100785.00
2018-07-03T12:35:38.363Z,100786.00
2018-07-03T12:38:08.620Z,100778.00
2018-07-03T12:40:39.649Z,100773.00
2018-07-03T12:43:09.742Z,100773.00
2018-07-03T12:45:40.014Z,100773.00
2018-07-03T12:48:10.133Z,100768.00
2018-07-03T12:50:40.177Z,100767.00
2018-07-03T12:53:10.376Z,100767.00
2018-07-03T12:55:40.510Z,100759.00
2018-07-03T12:58:10.106Z,100757.00
2018-07-03T13:00:40.147Z,100764.00
2018-07-03T13:03:10.571Z,100762.00
2018-07-03T13:05:40.743Z,100757.00
2018-07-03T13:08:11.095Z,100754.00
2018-07-03T13:10:41.103Z,100752.00
2018-07-03T13:13:11.454Z,100751.00
2018-07-03T13:15:41.608Z,100752.00
2018-07-03T13:18:16.835Z,100744.00
2018-07-03T13:20:47.110Z,100741.00
2018-07-03T13:23:17.394Z,100742.00
2018-07-03T13:25:48.038Z,100744.00
2018-07-03T13:28:18.382Z,100738.00
2018-07-03T13:30:48.586Z,100736.00
2018-07-03T13:33:18.858Z,100738.00
2018-07-03T13:35:48.986Z,100740.00
2018-07-03T13:38:19.136Z,100725.00
2018-07-03T13:40:49.488Z,100733.00
2018-07-03T13:43:19.568Z,100735.00
2018-07-03T13:45:49.834Z,100734.00
2018-07-03T13:48:19.963Z,100737.00
2018-07-03T13:50:50.064Z,100731.00
2018-07-03T13:53:19.828Z,100724.00
2018-07-03T13:55:50.048Z,100727.00
2018-07-03T13:58:19.927Z,100728.00
2018-07-03T14:00:51.173Z,100725.00
2018-07-03T14:03:22.144Z,100724.00
2018-07-03T14:05:53.409Z,100721.00
2018-07-03T14:08:25.639Z,100718.00
2018-07-03T14:10:56.119Z,100724.00
2018-07-03T14:20:34.868Z,100714.00
2018-07-03T14:23:05.249Z,100714.00
2018-07-03T14:25:35.254Z,100707.00
2018-07-03T14:28:05.544Z,100707.00
2018-07-03T14:30:36.568Z,100706.00
2018-07-03T14:33:06.914Z,100699.00
2018-07-03T14:35:37.233Z,100695.00
2018-07-03T14:38:08.188Z,100697.00
2018-07-03T14:40:38.487Z,100693.00
2018-07-03T14:43:08.693Z,100690.00
2018-07-03T14:45:38.962Z,100688.00
2018-07-03T14:48:09.782Z,100685.00
2018-07-03T14:50:40.092Z,100681.00
2018-07-03T14:53:10.071Z,100688.00
2018-07-03T14:55:40.390Z,100689.00
2018-07-03T14:58:10.841Z,100686.00
2018-07-03T15:00:40.988Z,100684.00
2018-07-03T15:03:11.224Z,100679.00
2018-07-03T15:05:41.221Z,100679.00
2018-07-03T15:08:11.335Z,100684.00
2018-07-03T15:10:41.693Z,100676.00
2018-07-03T15:13:11.909Z,100673.00
2018-07-03T15:15:42.163Z,100667.00
2018-07-03T15:18:13.430Z,100669.00
2018-07-03T15:20:43.594Z,100669.00
2018-07-03T15:23:14.154Z,100667.00
2018-07-03T15:25:44.398Z,100662.00
2018-07-03T15:28:15.025Z,100662.00
2018-07-03T15:30:45.228Z,100660.00
2018-07-03T15:33:15.349Z,100656.00
2018-07-03T15:35:45.767Z,100659.00
2018-07-03T15:38:16.107Z,100656.00
2018-07-03T15:40:46.390Z,100656.00
2018-07-03T15:43:16.309Z,100646.00
2018-07-03T15:45:46.424Z,100644.00
2018-07-03T15:48:16.549Z,100642.00
2018-07-03T15:50:47.777Z,100636.00
2018-07-03T15:53:18.519Z,100639.00
2018-07-03T15:55:49.015Z,100633.00
2018-07-03T16:10:24.472Z,100642.00
2018-07-03T16:12:54.623Z,100628.00
2018-07-03T16:15:25.041Z,100624.00
2018-07-03T16:17:55.565Z,100633.00
2018-07-03T16:20:30.720Z,100623.00
2018-07-03T16:23:00.659Z,100621.00
2018-07-03T16:25:31.242Z,100611.00
2018-07-03T16:28:01.610Z,100611.00
2018-07-03T16:30:31.976Z,100612.00
2018-07-03T16:33:02.329Z,100604.00
2018-07-03T16:35:39.386Z,100608.00
2018-07-03T16:38:09.951Z,100606.00
2018-07-03T16:40:40.044Z,100604.00
2018-07-03T16:43:10.322Z,100597.00
2018-07-03T16:45:40.847Z,100585.00
2018-07-03T16:48:12.854Z,100603.00
2018-07-03T16:50:43.288Z,100599.00
2018-07-03T16:53:14.806Z,100597.00
2018-07-03T16:55:45.126Z,100598.00
2018-07-03T16:58:15.451Z,100599.00
2018-07-03T17:00:45.514Z,100602.00
2018-07-03T17:03:15.758Z,100602.00
2018-07-03T17:05:46.161Z,100599.00
2018-07-03T17:08:16.470Z,100596.00
2018-07-03T17:10:47.099Z,100595.00
2018-07-03T17:13:17.384Z,100596.00
2018-07-03T17:15:47.624Z,100598.00
2018-07-03T17:18:17.806Z,100603.00
2018-07-03T17:20:48.290Z,100610.00
2018-07-03T17:23:19.033Z,100605.00
2018-07-03T17:25:49.467Z,100605.00
2018-07-03T17:28:19.720Z,100602.00
2018-07-03T17:30:50.233Z,100605.00
2018-07-03T17:33:20.718Z,100597.00
2018-07-03T17:35:50.900Z,100598.00
2018-07-03T17:38:21.028Z,100597.00
2018-07-03T17:41:07.100Z,100598.00
2018-07-03T17:44:22.269Z,100593.00
2018-07-03T17:46:52.398Z,100591.00
2018-07-03T17:49:22.650Z,100587.00
2018-07-03T17:51:53.234Z,100585.00
2018-07-03T17:54:23.905Z,100591.00
2018-07-03T17:56:54.317Z,100590.00
2018-07-03T17:59:24.939Z,100589.00
2018-07-03T18:01:54.673Z,100583.00
2018-07-03T18:04:25.179Z,100583.00
2018-07-03T18:06:55.337Z,100580.00
2018-07-03T18:09:26.034Z,100581.00
2018-07-03T18:11:56.688Z,100588.00
2018-07-03T18:14:27.068Z,100586.00
2018-07-03T18:16:57.973Z,100581.00
2018-07-03T18:19:33.898Z,100576.00
2018-07-03T18:22:04.323Z,100573.00
2018-07-03T18:24:34.907Z,100577.00
2018-07-03T18:27:05.509Z,100581.00
2018-07-03T18:29:35.976Z,100590.00
2018-07-03T18:32:06.770Z,100585.00
2018-07-03T18:34:37.616Z,100583.00
2018-07-03T18:37:08.133Z,100587.00
2018-07-03T18:39:39.261Z,100587.00
2018-07-03T18:42:09.981Z,100593.00
2018-07-03T18:44:40.763Z,100590.00
2018-07-03T18:47:11.029Z,100603.00
2018-07-03T18:49:41.378Z,100602.00
2018-07-03T18:52:11.953Z,100603.00
2018-07-03T18:54:42.466Z,100598.00
2018-07-03T18:57:13.296Z,100604.00
2018-07-03T18:59:43.713Z,100608.00
2018-07-03T19:02:14.187Z,100608.00
2018-07-03T19:04:44.912Z,100614.00
2018-07-03T19:07:15.478Z,100612.00
2018-07-03T19:09:45.848Z,100620.00
2018-07-03T19:12:16.506Z,100628.00
2018-07-03T19:14:46.885Z,100632.00
2018-07-03T19:17:17.093Z,100638.00
2018-07-03T19:19:48.349Z,100644.00
2018-07-03T19:22:19.728Z,100644.00
2018-07-03T19:24:50.166Z,100648.00
2018-07-03T19:27:20.721Z,100649.00
2018-07-03T19:29:51.095Z,100652.00
2018-07-03T19:32:21.284Z,100646.00
2018-07-03T19:34:51.399Z,100650.00
2018-07-03T19:37:21.719Z,100647.00
2018-07-03T19:39:52.136Z,100646.00
2018-07-03T19:42:23.065Z,100648.00
2018-07-03T19:44:53.495Z,100645.00
2018-07-03T19:47:23.590Z,100652.00
2018-07-03T19:49:54.167Z,100654.00
2018-07-03T19:52:24.444Z,100656.00
2018-07-03T19:54:55.519Z,100656.00
2018-07-03T19:57:27.041Z,100649.00
2018-07-03T19:59:56.976Z,100656.00
2018-07-03T20:02:27.607Z,100657.00
2018-07-03T20:04:58.821Z,100659.00
2018-07-03T20:07:30.848Z,100659.00
2018-07-03T20:10:00.963Z,100662.00
2018-07-03T20:12:32.012Z,100670.00
2018-07-03T20:15:02.308Z,100667.00
2018-07-03T20:17:33.249Z,100670.00
2018-07-03T20:20:04.026Z,100673.00
2018-07-03T20:22:34.967Z,100671.00
2018-07-03T20:25:05.539Z,100671.00
2018-07-03T20:27:36.227Z,100672.00
2018-07-03T20:30:07.880Z,100674.00
2018-07-03T20:32:38.707Z,100674.00
2018-07-03T20:35:08.719Z,100674.00
2018-07-03T20:37:55.709Z,100667.00
2018-07-03T20:40:26.859Z,100669.00
2018-07-03T20:42:58.035Z,100649.00
2018-07-03T20:45:27.923Z,100679.00
2018-07-03T20:47:58.071Z,100678.00
2018-07-03T20:50:27.933Z,100680.00
2018-07-03T20:52:57.859Z,100686.00
2018-07-03T20:55:27.681Z,100691.00
2018-07-03T20:57:58.249Z,100692.00
2018-07-03T21:10:33.806Z,100693.00
2018-07-03T21:13:05.008Z,100702.00
2018-07-03T21:15:36.378Z,100706.00
2018-07-03T21:18:07.294Z,100705.00
2018-07-03T21:20:38.821Z,100710.00
2018-07-03T21:23:09.563Z,100713.00
2018-07-03T21:25:39.822Z,100711.00
2018-07-03T21:28:10.072Z,100713.00
2018-07-03T21:30:40.336Z,100716.00
2018-07-03T21:33:10.578Z,100723.00
2018-07-03T21:35:40.682Z,100727.00
2018-07-03T21:38:11.557Z,100725.00
2018-07-03T21:40:41.814Z,100732.00
2018-07-03T21:43:12.323Z,100730.00
2018-07-03T21:45:42.521Z,100733.00
2018-07-03T21:48:13.018Z,100732.00
2018-07-03T21:50:43.035Z,100729.00
2018-07-03T21:53:13.053Z,100732.00
2018-07-03T21:55:43.236Z,100729.00
2018-07-03T21:58:13.701Z,100724.00
2018-07-03T22:00:43.977Z,100725.00
2018-07-03T22:03:14.217Z,100724.00
2018-07-03T22:05:44.725Z,100726.00
2018-07-03T22:08:14.881Z,100725.00
2018-07-03T22:10:45.081Z,100728.00
2018-07-03T22:13:15.406Z,100730.00
2018-07-03T22:15:45.541Z,100730.00
2018-07-03T22:18:15.777Z,100736.00
2018-07-03T22:20:46.065Z,100736.00
2018-07-03T22:23:16.150Z,100738.00
2018-07-03T22:25:46.360Z,100731.00
2018-07-03T22:28:16.626Z,100725.00
2018-07-03T22:30:46.866Z,100732.00
2018-07-03T22:33:16.943Z,100732.00
2018-07-03T22:35:47.188Z,100733.00
2018-07-03T22:38:17.390Z,100735.00
2018-07-03T22:40:47.235Z,100737.00
2018-07-03T22:43:17.611Z,100737.00
2018-07-03T22:45:47.724Z,100736.00
2018-07-03T22:48:18.766Z,100731.00
2018-07-03T22:50:49.880Z,100734.00
2018-07-03T22:53:21.044Z,100741.00
2018-07-03T22:55:51.790Z,100735.00
2018-07-03T22:58:22.239Z,100729.00
2018-07-03T23:00:52.445Z,100733.00
2018-07-03T23:03:22.640Z,100732.00
2018-07-03T23:05:52.673Z,100731.00
2018-07-03T23:08:22.699Z,100731.00
2018-07-03T23:10:52.934Z,100729.00
2018-07-03T23:13:23.264Z,100724.00
2018-07-03T23:15:53.818Z,100729.00
2018-07-03T23:18:24.330Z,100731.00
2018-07-03T23:20:54.162Z,100730.00
2018-07-03T23:23:24.158Z,100734.00
2018-07-03T23:25:54.526Z,100725.00
2018-07-03T23:28:24.460Z,100728.00
2018-07-03T23:30:54.595Z,100726.00
2018-07-03T23:33:24.669Z,100724.00
2018-07-03T23:35:54.775Z,100726.00
2018-07-03T23:38:24.876Z,100731.00
2018-07-03T23:40:55.221Z,100731.00
2018-07-03T23:43:25.266Z,100736.00
2018-07-03T23:45:58.545Z,100731.00
2018-07-03T23:48:45.254Z,100736.00
2018-07-03T23:51:32.249Z,100737.00
2018-07-03T23:54:18.865Z,100736.00
2018-07-03T23:57:05.762Z,100736.00
2018-07-03T23:59:52.420Z,100737.00
